sensor_id;sensor_type;location;lat;lon;timestamp;P1;durP1;ratioP1;P2;durP2;ratioP2
71836;SDS011;59686;51.716;7.016;2023-01-01T00:01:24;15.30;;;11.70;;
71836;SDS011;59686;51.716;7.016;2023-01-01T00:03:51;18.38;;;11.63;;
71836;SDS011;59686;51.716;7.016;2023-01-01T00:06:18;17.60;;;11.88;;
71836;SDS011;59686;51.716;7.016;2023-01-01T00:08:44;16.95;;;11.57;;
71836;SDS011;59686;51.716;7.016;2023-01-01T00:11:10;23.63;;;12.75;;
71836;SDS011;59686;51.716;7.016;2023-01-01T00:13:37;21.02;;;12.65;;
71836;SDS011;59686;51.716;7.016;2023-01-01T00:16:09;19.58;;;11.85;;
71836;SDS011;59686;51.716;7.016;2023-01-01T00:18:36;17.73;;;12.13;;
71836;SDS011;59686;51.716;7.016;2023-01-01T00:23:33;14.95;;;11.05;;
71836;SDS011;59686;51.716;7.016;2023-01-01T00:28:48;17.90;;;10.55;;
71836;SDS011;59686;51.716;7.016;2023-01-01T00:31:14;19.63;;;10.90;;
71836;SDS011;59686;51.716;7.016;2023-01-01T00:33:42;18.13;;;9.82;;
71836;SDS011;59686;51.716;7.016;2023-01-01T00:36:09;16.42;;;9.93;;
71836;SDS011;59686;51.716;7.016;2023-01-01T00:38:37;14.60;;;8.98;;
71836;SDS011;59686;51.716;7.016;2023-01-01T00:41:14;16.52;;;9.43;;
71836;SDS011;59686;51.716;7.016;2023-01-01T00:43:41;14.65;;;9.05;;
71836;SDS011;59686;51.716;7.016;2023-01-01T00:46:07;17.45;;;9.00;;
71836;SDS011;59686;51.716;7.016;2023-01-01T00:48:33;16.63;;;9.10;;
71836;SDS011;59686;51.716;7.016;2023-01-01T00:50:59;18.40;;;9.32;;
71836;SDS011;59686;51.716;7.016;2023-01-01T00:53:25;13.35;;;8.02;;
71836;SDS011;59686;51.716;7.016;2023-01-01T00:55:51;14.77;;;8.38;;
71836;SDS011;59686;51.716;7.016;2023-01-01T00:58:20;14.60;;;8.55;;
71836;SDS011;59686;51.716;7.016;2023-01-01T01:00:47;13.52;;;8.60;;
71836;SDS011;59686;51.716;7.016;2023-01-01T01:03:17;13.23;;;7.97;;
71836;SDS011;59686;51.716;7.016;2023-01-01T01:08:29;18.02;;;8.27;;
71836;SDS011;59686;51.716;7.016;2023-01-01T01:11:07;14.10;;;7.78;;
71836;SDS011;59686;51.716;7.016;2023-01-01T01:13:47;17.95;;;8.52;;
71836;SDS011;59686;51.716;7.016;2023-01-01T01:19:19;14.57;;;7.75;;
71836;SDS011;59686;51.716;7.016;2023-01-01T01:24:33;12.60;;;7.32;;
71836;SDS011;59686;51.716;7.016;2023-01-01T01:26:59;10.85;;;7.05;;
71836;SDS011;59686;51.716;7.016;2023-01-01T01:29:24;11.55;;;7.18;;
71836;SDS011;59686;51.716;7.016;2023-01-01T01:32:01;17.20;;;7.55;;
71836;SDS011;59686;51.716;7.016;2023-01-01T01:34:27;12.32;;;6.90;;
71836;SDS011;59686;51.716;7.016;2023-01-01T01:36:53;9.32;;;6.78;;
71836;SDS011;59686;51.716;7.016;2023-01-01T01:39:19;11.93;;;7.35;;
71836;SDS011;59686;51.716;7.016;2023-01-01T01:41:44;10.73;;;6.80;;
71836;SDS011;59686;51.716;7.016;2023-01-01T01:47:53;12.15;;;6.45;;
71836;SDS011;59686;51.716;7.016;2023-01-01T01:52:27;11.52;;;6.88;;
71836;SDS011;59686;51.716;7.016;2023-01-01T01:54:57;9.13;;;5.63;;
71836;SDS011;59686;51.716;7.016;2023-01-01T01:57:25;12.25;;;5.43;;
71836;SDS011;59686;51.716;7.016;2023-01-01T01:59:52;13.10;;;5.97;;
71836;SDS011;59686;51.716;7.016;2023-01-01T02:05:13;10.70;;;5.75;;
71836;SDS011;59686;51.716;7.016;2023-01-01T02:07:44;10.15;;;5.35;;
71836;SDS011;59686;51.716;7.016;2023-01-01T02:10:10;11.00;;;4.90;;
71836;SDS011;59686;51.716;7.016;2023-01-01T02:12:35;9.90;;;4.15;;
71836;SDS011;59686;51.716;7.016;2023-01-01T02:15:01;7.85;;;4.18;;
71836;SDS011;59686;51.716;7.016;2023-01-01T02:17:32;8.55;;;4.35;;
71836;SDS011;59686;51.716;7.016;2023-01-01T02:20:21;12.60;;;4.50;;
71836;SDS011;59686;51.716;7.016;2023-01-01T02:29:04;5.47;;;3.50;;
71836;SDS011;59686;51.716;7.016;2023-01-01T02:31:36;4.55;;;3.30;;
71836;SDS011;59686;51.716;7.016;2023-01-01T02:34:23;8.57;;;3.28;;
71836;SDS011;59686;51.716;7.016;2023-01-01T02:36:54;7.88;;;3.30;;
71836;SDS011;59686;51.716;7.016;2023-01-01T02:39:23;5.20;;;2.88;;
71836;SDS011;59686;51.716;7.016;2023-01-01T02:41:51;6.38;;;3.10;;
71836;SDS011;59686;51.716;7.016;2023-01-01T02:44:20;6.72;;;2.75;;
71836;SDS011;59686;51.716;7.016;2023-01-01T02:46:48;7.03;;;3.03;;
71836;SDS011;59686;51.716;7.016;2023-01-01T02:49:14;6.53;;;2.70;;
71836;SDS011;59686;51.716;7.016;2023-01-01T02:54:32;8.23;;;2.47;;
71836;SDS011;59686;51.716;7.016;2023-01-01T03:00:05;5.20;;;2.40;;
71836;SDS011;59686;51.716;7.016;2023-01-01T03:08:24;6.15;;;2.30;;
71836;SDS011;59686;51.716;7.016;2023-01-01T03:11:08;4.65;;;2.10;;
71836;SDS011;59686;51.716;7.016;2023-01-01T03:19:16;5.25;;;2.35;;
71836;SDS011;59686;51.716;7.016;2023-01-01T03:21:54;3.53;;;2.30;;
71836;SDS011;59686;51.716;7.016;2023-01-01T03:26:56;4.68;;;2.00;;
71836;SDS011;59686;51.716;7.016;2023-01-01T03:29:26;4.53;;;2.28;;
71836;SDS011;59686;51.716;7.016;2023-01-01T03:31:54;4.78;;;1.98;;
71836;SDS011;59686;51.716;7.016;2023-01-01T03:34:25;6.15;;;2.33;;
71836;SDS011;59686;51.716;7.016;2023-01-01T03:37:03;5.97;;;2.25;;
71836;SDS011;59686;51.716;7.016;2023-01-01T03:39:47;6.10;;;2.25;;
71836;SDS011;59686;51.716;7.016;2023-01-01T03:42:33;6.82;;;2.25;;
71836;SDS011;59686;51.716;7.016;2023-01-01T03:45:04;6.35;;;2.22;;
71836;SDS011;59686;51.716;7.016;2023-01-01T03:47:33;5.40;;;2.03;;
71836;SDS011;59686;51.716;7.016;2023-01-01T03:50:13;7.95;;;2.40;;
71836;SDS011;59686;51.716;7.016;2023-01-01T03:58:02;5.20;;;2.10;;
71836;SDS011;59686;51.716;7.016;2023-01-01T04:00:55;6.63;;;2.20;;
71836;SDS011;59686;51.716;7.016;2023-01-01T04:03:27;3.50;;;1.80;;
71836;SDS011;59686;51.716;7.016;2023-01-01T04:05:55;6.68;;;2.53;;
71836;SDS011;59686;51.716;7.016;2023-01-01T04:08:21;5.85;;;2.13;;
71836;SDS011;59686;51.716;7.016;2023-01-01T04:10:50;6.88;;;1.98;;
71836;SDS011;59686;51.716;7.016;2023-01-01T04:13:23;7.78;;;2.35;;
71836;SDS011;59686;51.716;7.016;2023-01-01T04:18:50;4.60;;;2.00;;
71836;SDS011;59686;51.716;7.016;2023-01-01T04:21:15;6.75;;;2.25;;
71836;SDS011;59686;51.716;7.016;2023-01-01T04:23:41;3.13;;;2.13;;
71836;SDS011;59686;51.716;7.016;2023-01-01T04:26:10;4.07;;;1.83;;
71836;SDS011;59686;51.716;7.016;2023-01-01T04:28:42;6.18;;;1.85;;
71836;SDS011;59686;51.716;7.016;2023-01-01T04:31:08;5.80;;;1.85;;
71836;SDS011;59686;51.716;7.016;2023-01-01T04:33:34;4.93;;;2.03;;
71836;SDS011;59686;51.716;7.016;2023-01-01T04:36:04;4.05;;;2.10;;
71836;SDS011;59686;51.716;7.016;2023-01-01T04:38:34;7.10;;;2.25;;
71836;SDS011;59686;51.716;7.016;2023-01-01T04:41:00;6.43;;;2.20;;
71836;SDS011;59686;51.716;7.016;2023-01-01T04:43:47;6.60;;;2.10;;
71836;SDS011;59686;51.716;7.016;2023-01-01T04:46:14;4.50;;;2.05;;
71836;SDS011;59686;51.716;7.016;2023-01-01T04:48:41;4.70;;;2.00;;
71836;SDS011;59686;51.716;7.016;2023-01-01T04:51:08;5.75;;;2.03;;
71836;SDS011;59686;51.716;7.016;2023-01-01T04:53:34;4.00;;;1.90;;
71836;SDS011;59686;51.716;7.016;2023-01-01T04:56:06;4.13;;;1.90;;
71836;SDS011;59686;51.716;7.016;2023-01-01T04:58:36;4.93;;;1.90;;
71836;SDS011;59686;51.716;7.016;2023-01-01T05:01:03;5.72;;;2.00;;
71836;SDS011;59686;51.716;7.016;2023-01-01T05:03:30;5.20;;;2.00;;
71836;SDS011;59686;51.716;7.016;2023-01-01T05:06:03;4.28;;;1.75;;
71836;SDS011;59686;51.716;7.016;2023-01-01T05:08:32;4.45;;;2.22;;
71836;SDS011;59686;51.716;7.016;2023-01-01T05:11:06;5.40;;;2.10;;
71836;SDS011;59686;51.716;7.016;2023-01-01T05:13:37;3.25;;;1.80;;
71836;SDS011;59686;51.716;7.016;2023-01-01T05:16:05;6.70;;;1.95;;
71836;SDS011;59686;51.716;7.016;2023-01-01T05:18:32;4.82;;;1.85;;
71836;SDS011;59686;51.716;7.016;2023-01-01T05:20:59;4.30;;;1.85;;
71836;SDS011;59686;51.716;7.016;2023-01-01T05:23:26;4.32;;;2.20;;
71836;SDS011;59686;51.716;7.016;2023-01-01T05:25:52;7.32;;;2.10;;
71836;SDS011;59686;51.716;7.016;2023-01-01T05:28:18;5.35;;;2.17;;
71836;SDS011;59686;51.716;7.016;2023-01-01T05:30:44;7.10;;;2.08;;
71836;SDS011;59686;51.716;7.016;2023-01-01T05:33:09;5.78;;;2.08;;
71836;SDS011;59686;51.716;7.016;2023-01-01T05:35:36;4.43;;;2.22;;
71836;SDS011;59686;51.716;7.016;2023-01-01T05:38:02;5.28;;;1.80;;
71836;SDS011;59686;51.716;7.016;2023-01-01T05:40:29;4.10;;;1.98;;
71836;SDS011;59686;51.716;7.016;2023-01-01T05:42:54;5.20;;;2.08;;
71836;SDS011;59686;51.716;7.016;2023-01-01T05:45:20;4.20;;;1.92;;
71836;SDS011;59686;51.716;7.016;2023-01-01T05:47:46;2.90;;;1.92;;
71836;SDS011;59686;51.716;7.016;2023-01-01T05:50:12;7.47;;;2.17;;
71836;SDS011;59686;51.716;7.016;2023-01-01T05:52:37;3.72;;;2.00;;
71836;SDS011;59686;51.716;7.016;2023-01-01T05:55:03;6.40;;;2.10;;
71836;SDS011;59686;51.716;7.016;2023-01-01T05:57:29;6.00;;;2.15;;
71836;SDS011;59686;51.716;7.016;2023-01-01T05:59:55;4.32;;;2.05;;
71836;SDS011;59686;51.716;7.016;2023-01-01T06:02:20;5.45;;;2.20;;
71836;SDS011;59686;51.716;7.016;2023-01-01T06:04:46;6.05;;;2.10;;
71836;SDS011;59686;51.716;7.016;2023-01-01T06:07:11;5.90;;;2.72;;
71836;SDS011;59686;51.716;7.016;2023-01-01T06:09:37;6.90;;;2.42;;
71836;SDS011;59686;51.716;7.016;2023-01-01T06:12:03;3.60;;;2.10;;
71836;SDS011;59686;51.716;7.016;2023-01-01T06:14:29;5.05;;;2.40;;
71836;SDS011;59686;51.716;7.016;2023-01-01T06:19:51;4.50;;;2.03;;
71836;SDS011;59686;51.716;7.016;2023-01-01T06:22:17;4.28;;;2.08;;
71836;SDS011;59686;51.716;7.016;2023-01-01T06:24:42;5.35;;;2.20;;
71836;SDS011;59686;51.716;7.016;2023-01-01T06:27:08;4.05;;;1.85;;
71836;SDS011;59686;51.716;7.016;2023-01-01T06:29:34;5.85;;;2.40;;
71836;SDS011;59686;51.716;7.016;2023-01-01T06:32:07;4.32;;;2.22;;
71836;SDS011;59686;51.716;7.016;2023-01-01T06:34:33;5.78;;;1.90;;
71836;SDS011;59686;51.716;7.016;2023-01-01T06:36:59;6.28;;;2.30;;
71836;SDS011;59686;51.716;7.016;2023-01-01T06:39:24;6.50;;;2.38;;
71836;SDS011;59686;51.716;7.016;2023-01-01T06:41:50;5.65;;;2.30;;
71836;SDS011;59686;51.716;7.016;2023-01-01T06:44:15;4.22;;;1.88;;
71836;SDS011;59686;51.716;7.016;2023-01-01T06:46:41;5.57;;;2.40;;
71836;SDS011;59686;51.716;7.016;2023-01-01T06:49:09;5.55;;;1.98;;
71836;SDS011;59686;51.716;7.016;2023-01-01T06:51:36;5.72;;;2.15;;
71836;SDS011;59686;51.716;7.016;2023-01-01T06:54:04;4.85;;;2.03;;
71836;SDS011;59686;51.716;7.016;2023-01-01T06:56:30;4.40;;;2.00;;
71836;SDS011;59686;51.716;7.016;2023-01-01T07:01:32;4.07;;;1.92;;
71836;SDS011;59686;51.716;7.016;2023-01-01T07:04:05;7.53;;;2.10;;
71836;SDS011;59686;51.716;7.016;2023-01-01T07:06:32;4.53;;;1.58;;
71836;SDS011;59686;51.716;7.016;2023-01-01T07:08:59;6.82;;;2.15;;
71836;SDS011;59686;51.716;7.016;2023-01-01T07:11:26;5.90;;;2.10;;
71836;SDS011;59686;51.716;7.016;2023-01-01T07:13:53;3.10;;;1.65;;
71836;SDS011;59686;51.716;7.016;2023-01-01T07:16:18;5.50;;;1.83;;
71836;SDS011;59686;51.716;7.016;2023-01-01T07:18:44;5.03;;;2.08;;
71836;SDS011;59686;51.716;7.016;2023-01-01T07:21:22;4.32;;;1.88;;
71836;SDS011;59686;51.716;7.016;2023-01-01T07:23:59;4.10;;;2.10;;
71836;SDS011;59686;51.716;7.016;2023-01-01T07:26:27;4.60;;;2.10;;
71836;SDS011;59686;51.716;7.016;2023-01-01T07:28:54;8.45;;;2.15;;
71836;SDS011;59686;51.716;7.016;2023-01-01T07:31:20;6.65;;;1.98;;
71836;SDS011;59686;51.716;7.016;2023-01-01T07:33:47;2.83;;;1.80;;
71836;SDS011;59686;51.716;7.016;2023-01-01T07:36:12;5.70;;;2.10;;
71836;SDS011;59686;51.716;7.016;2023-01-01T07:38:39;3.92;;;2.05;;
71836;SDS011;59686;51.716;7.016;2023-01-01T07:41:05;4.95;;;1.88;;
71836;SDS011;59686;51.716;7.016;2023-01-01T07:43:31;2.70;;;1.80;;
71836;SDS011;59686;51.716;7.016;2023-01-01T07:45:57;6.72;;;2.30;;
71836;SDS011;59686;51.716;7.016;2023-01-01T07:48:23;5.55;;;2.40;;
71836;SDS011;59686;51.716;7.016;2023-01-01T07:50:49;4.15;;;1.88;;
71836;SDS011;59686;51.716;7.016;2023-01-01T07:53:15;4.43;;;2.05;;
71836;SDS011;59686;51.716;7.016;2023-01-01T07:55:41;5.72;;;2.30;;
71836;SDS011;59686;51.716;7.016;2023-01-01T07:58:07;4.25;;;1.98;;
71836;SDS011;59686;51.716;7.016;2023-01-01T08:00:35;4.22;;;2.20;;
71836;SDS011;59686;51.716;7.016;2023-01-01T08:03:01;4.40;;;2.05;;
71836;SDS011;59686;51.716;7.016;2023-01-01T08:05:26;4.00;;;2.17;;
71836;SDS011;59686;51.716;7.016;2023-01-01T08:07:52;3.70;;;2.08;;
71836;SDS011;59686;51.716;7.016;2023-01-01T08:10:18;4.45;;;2.10;;
71836;SDS011;59686;51.716;7.016;2023-01-01T08:12:44;4.88;;;2.22;;
71836;SDS011;59686;51.716;7.016;2023-01-01T08:15:10;3.40;;;1.90;;
71836;SDS011;59686;51.716;7.016;2023-01-01T08:17:38;4.53;;;2.03;;
71836;SDS011;59686;51.716;7.016;2023-01-01T08:20:04;4.95;;;2.13;;
71836;SDS011;59686;51.716;7.016;2023-01-01T08:22:31;3.47;;;2.10;;
71836;SDS011;59686;51.716;7.016;2023-01-01T08:24:57;4.18;;;1.63;;
71836;SDS011;59686;51.716;7.016;2023-01-01T08:27:23;4.45;;;2.10;;
71836;SDS011;59686;51.716;7.016;2023-01-01T08:29:48;6.18;;;2.33;;
71836;SDS011;59686;51.716;7.016;2023-01-01T08:32:14;5.53;;;2.25;;
71836;SDS011;59686;51.716;7.016;2023-01-01T08:34:40;4.60;;;2.40;;
71836;SDS011;59686;51.716;7.016;2023-01-01T08:37:06;6.55;;;2.35;;
71836;SDS011;59686;51.716;7.016;2023-01-01T08:39:37;7.00;;;2.45;;
71836;SDS011;59686;51.716;7.016;2023-01-01T08:42:03;4.28;;;1.95;;
71836;SDS011;59686;51.716;7.016;2023-01-01T08:44:29;4.80;;;2.17;;
71836;SDS011;59686;51.716;7.016;2023-01-01T08:46:55;4.20;;;2.33;;
71836;SDS011;59686;51.716;7.016;2023-01-01T08:49:20;4.78;;;2.45;;
71836;SDS011;59686;51.716;7.016;2023-01-01T08:51:47;7.85;;;3.75;;
71836;SDS011;59686;51.716;7.016;2023-01-01T08:54:13;8.50;;;4.00;;
71836;SDS011;59686;51.716;7.016;2023-01-01T08:56:38;8.60;;;4.20;;
71836;SDS011;59686;51.716;7.016;2023-01-01T08:59:04;10.85;;;4.40;;
71836;SDS011;59686;51.716;7.016;2023-01-01T09:01:30;7.68;;;4.13;;
71836;SDS011;59686;51.716;7.016;2023-01-01T09:03:55;8.15;;;3.92;;
71836;SDS011;59686;51.716;7.016;2023-01-01T09:06:21;5.85;;;3.35;;
71836;SDS011;59686;51.716;7.016;2023-01-01T09:08:47;6.68;;;3.50;;
71836;SDS011;59686;51.716;7.016;2023-01-01T09:11:23;8.68;;;3.33;;
71836;SDS011;59686;51.716;7.016;2023-01-01T09:13:50;6.88;;;3.45;;
71836;SDS011;59686;51.716;7.016;2023-01-01T09:16:17;7.50;;;3.92;;
71836;SDS011;59686;51.716;7.016;2023-01-01T09:18:43;6.85;;;3.30;;
71836;SDS011;59686;51.716;7.016;2023-01-01T09:21:08;6.70;;;3.38;;
71836;SDS011;59686;51.716;7.016;2023-01-01T09:23:36;6.38;;;3.05;;
71836;SDS011;59686;51.716;7.016;2023-01-01T09:26:02;6.10;;;2.72;;
71836;SDS011;59686;51.716;7.016;2023-01-01T09:28:33;6.40;;;2.88;;
71836;SDS011;59686;51.716;7.016;2023-01-01T09:30:59;7.13;;;3.10;;
71836;SDS011;59686;51.716;7.016;2023-01-01T09:33:26;6.18;;;2.90;;
71836;SDS011;59686;51.716;7.016;2023-01-01T09:35:52;5.03;;;3.17;;
71836;SDS011;59686;51.716;7.016;2023-01-01T09:38:24;5.72;;;2.70;;
71836;SDS011;59686;51.716;7.016;2023-01-01T09:41:02;4.07;;;2.25;;
71836;SDS011;59686;51.716;7.016;2023-01-01T09:46:13;7.32;;;2.70;;
71836;SDS011;59686;51.716;7.016;2023-01-01T09:51:32;5.22;;;2.47;;
71836;SDS011;59686;51.716;7.016;2023-01-01T09:54:15;5.60;;;2.67;;
71836;SDS011;59686;51.716;7.016;2023-01-01T09:56:54;3.80;;;2.20;;
71836;SDS011;59686;51.716;7.016;2023-01-01T09:59:22;4.60;;;2.22;;
71836;SDS011;59686;51.716;7.016;2023-01-01T10:08:16;4.25;;;2.30;;
71836;SDS011;59686;51.716;7.016;2023-01-01T10:13:24;5.30;;;2.53;;
71836;SDS011;59686;51.716;7.016;2023-01-01T10:18:47;5.65;;;2.50;;
71836;SDS011;59686;51.716;7.016;2023-01-01T10:21:18;4.90;;;2.28;;
71836;SDS011;59686;51.716;7.016;2023-01-01T10:26:51;6.05;;;2.50;;
71836;SDS011;59686;51.716;7.016;2023-01-01T10:29:34;5.03;;;2.67;;
71836;SDS011;59686;51.716;7.016;2023-01-01T10:32:20;3.78;;;2.40;;
71836;SDS011;59686;51.716;7.016;2023-01-01T10:34:51;7.13;;;2.47;;
71836;SDS011;59686;51.716;7.016;2023-01-01T10:37:17;6.07;;;2.58;;
71836;SDS011;59686;51.716;7.016;2023-01-01T10:39:44;5.85;;;2.40;;
71836;SDS011;59686;51.716;7.016;2023-01-01T10:42:11;6.30;;;2.88;;
71836;SDS011;59686;51.716;7.016;2023-01-01T10:44:38;5.38;;;2.60;;
71836;SDS011;59686;51.716;7.016;2023-01-01T10:52:39;7.45;;;2.75;;
71836;SDS011;59686;51.716;7.016;2023-01-01T10:55:05;7.32;;;2.67;;
71836;SDS011;59686;51.716;7.016;2023-01-01T10:57:52;5.13;;;2.65;;
71836;SDS011;59686;51.716;7.016;2023-01-01T11:03:19;5.57;;;2.70;;
71836;SDS011;59686;51.716;7.016;2023-01-01T11:06:01;4.20;;;2.20;;
71836;SDS011;59686;51.716;7.016;2023-01-01T11:08:47;6.53;;;2.80;;
71836;SDS011;59686;51.716;7.016;2023-01-01T11:11:24;6.20;;;2.60;;
71836;SDS011;59686;51.716;7.016;2023-01-01T11:14:01;5.40;;;2.42;;
71836;SDS011;59686;51.716;7.016;2023-01-01T11:16:32;5.10;;;2.75;;
71836;SDS011;59686;51.716;7.016;2023-01-01T11:19:06;5.50;;;2.53;;
71836;SDS011;59686;51.716;7.016;2023-01-01T11:21:44;6.00;;;2.70;;
71836;SDS011;59686;51.716;7.016;2023-01-01T11:24:27;6.95;;;2.40;;
71836;SDS011;59686;51.716;7.016;2023-01-01T11:29:46;6.45;;;2.60;;
71836;SDS011;59686;51.716;7.016;2023-01-01T11:32:18;7.85;;;3.13;;
71836;SDS011;59686;51.716;7.016;2023-01-01T11:37:44;9.10;;;2.75;;
71836;SDS011;59686;51.716;7.016;2023-01-01T11:40:19;5.78;;;2.75;;
71836;SDS011;59686;51.716;7.016;2023-01-01T11:45:40;4.75;;;2.28;;
71836;SDS011;59686;51.716;7.016;2023-01-01T11:48:17;9.25;;;2.60;;
71836;SDS011;59686;51.716;7.016;2023-01-01T11:50:59;6.22;;;2.60;;
71836;SDS011;59686;51.716;7.016;2023-01-01T11:53:28;4.50;;;2.38;;
71836;SDS011;59686;51.716;7.016;2023-01-01T11:58:33;6.10;;;2.70;;
71836;SDS011;59686;51.716;7.016;2023-01-01T12:04:07;7.07;;;2.75;;
71836;SDS011;59686;51.716;7.016;2023-01-01T12:07:14;8.05;;;2.35;;
71836;SDS011;59686;51.716;7.016;2023-01-01T12:09:51;7.63;;;2.53;;
71836;SDS011;59686;51.716;7.016;2023-01-01T12:18:41;6.13;;;2.42;;
71836;SDS011;59686;51.716;7.016;2023-01-01T12:21:25;7.65;;;2.50;;
71836;SDS011;59686;51.716;7.016;2023-01-01T12:23:52;6.15;;;2.15;;
71836;SDS011;59686;51.716;7.016;2023-01-01T12:46:16;6.65;;;2.75;;
71836;SDS011;59686;51.716;7.016;2023-01-01T12:48:59;6.65;;;2.67;;
71836;SDS011;59686;51.716;7.016;2023-01-01T12:59:48;8.80;;;2.40;;
71836;SDS011;59686;51.716;7.016;2023-01-01T13:02:27;9.63;;;2.58;;
71836;SDS011;59686;51.716;7.016;2023-01-01T13:05:00;7.65;;;2.60;;
71836;SDS011;59686;51.716;7.016;2023-01-01T13:07:38;7.72;;;2.50;;
71836;SDS011;59686;51.716;7.016;2023-01-01T13:10:18;7.53;;;2.60;;
71836;SDS011;59686;51.716;7.016;2023-01-01T13:12:54;9.15;;;2.60;;
71836;SDS011;59686;51.716;7.016;2023-01-01T13:18:02;6.90;;;2.80;;
71836;SDS011;59686;51.716;7.016;2023-01-01T13:20:35;7.60;;;2.85;;
71836;SDS011;59686;51.716;7.016;2023-01-01T13:23:04;8.43;;;2.30;;
71836;SDS011;59686;51.716;7.016;2023-01-01T13:25:30;3.22;;;1.90;;
71836;SDS011;59686;51.716;7.016;2023-01-01T13:35:42;7.93;;;2.63;;
71836;SDS011;59686;51.716;7.016;2023-01-01T13:46:48;3.67;;;1.95;;
71836;SDS011;59686;51.716;7.016;2023-01-01T14:00:53;7.57;;;2.55;;
71836;SDS011;59686;51.716;7.016;2023-01-01T14:03:38;5.93;;;2.42;;
71836;SDS011;59686;51.716;7.016;2023-01-01T14:06:28;7.68;;;2.47;;
71836;SDS011;59686;51.716;7.016;2023-01-01T14:09:00;5.38;;;2.38;;
71836;SDS011;59686;51.716;7.016;2023-01-01T14:11:40;7.70;;;2.70;;
71836;SDS011;59686;51.716;7.016;2023-01-01T14:14:25;6.10;;;2.50;;
71836;SDS011;59686;51.716;7.016;2023-01-01T14:16:56;5.80;;;2.65;;
71836;SDS011;59686;51.716;7.016;2023-01-01T14:19:24;4.55;;;2.13;;
71836;SDS011;59686;51.716;7.016;2023-01-01T14:21:51;6.65;;;2.33;;
71836;SDS011;59686;51.716;7.016;2023-01-01T14:24:26;5.82;;;3.10;;
71836;SDS011;59686;51.716;7.016;2023-01-01T14:26:52;8.98;;;2.60;;
71836;SDS011;59686;51.716;7.016;2023-01-01T14:29:28;7.85;;;2.42;;
71836;SDS011;59686;51.716;7.016;2023-01-01T14:31:59;6.90;;;2.20;;
71836;SDS011;59686;51.716;7.016;2023-01-01T14:34:36;8.30;;;2.55;;
71836;SDS011;59686;51.716;7.016;2023-01-01T14:37:02;7.80;;;2.60;;
71836;SDS011;59686;51.716;7.016;2023-01-01T14:39:30;7.55;;;2.42;;
71836;SDS011;59686;51.716;7.016;2023-01-01T14:42:14;6.03;;;2.58;;
71836;SDS011;59686;51.716;7.016;2023-01-01T14:44:42;7.30;;;2.38;;
71836;SDS011;59686;51.716;7.016;2023-01-01T14:47:19;9.30;;;2.40;;
71836;SDS011;59686;51.716;7.016;2023-01-01T14:52:56;8.73;;;2.88;;
71836;SDS011;59686;51.716;7.016;2023-01-01T14:55:30;6.07;;;2.33;;
71836;SDS011;59686;51.716;7.016;2023-01-01T15:00:44;6.18;;;2.35;;
71836;SDS011;59686;51.716;7.016;2023-01-01T15:03:14;5.10;;;2.65;;
71836;SDS011;59686;51.716;7.016;2023-01-01T15:05:41;5.80;;;2.15;;
71836;SDS011;59686;51.716;7.016;2023-01-01T15:08:21;4.10;;;2.33;;
71836;SDS011;59686;51.716;7.016;2023-01-01T15:10:50;5.28;;;2.70;;
71836;SDS011;59686;51.716;7.016;2023-01-01T15:13:24;6.78;;;3.00;;
71836;SDS011;59686;51.716;7.016;2023-01-01T15:15:52;7.68;;;2.75;;
71836;SDS011;59686;51.716;7.016;2023-01-01T15:21:13;6.10;;;2.47;;
71836;SDS011;59686;51.716;7.016;2023-01-01T15:24:14;5.80;;;2.63;;
71836;SDS011;59686;51.716;7.016;2023-01-01T15:26:52;7.15;;;2.85;;
71836;SDS011;59686;51.716;7.016;2023-01-01T15:29:22;6.75;;;2.63;;
71836;SDS011;59686;51.716;7.016;2023-01-01T15:31:58;5.45;;;2.75;;
71836;SDS011;59686;51.716;7.016;2023-01-01T15:34:30;6.53;;;2.80;;
71836;SDS011;59686;51.716;7.016;2023-01-01T15:39:46;4.78;;;2.63;;
71836;SDS011;59686;51.716;7.016;2023-01-01T15:42:21;8.07;;;2.70;;
71836;SDS011;59686;51.716;7.016;2023-01-01T15:50:33;6.78;;;3.17;;
71836;SDS011;59686;51.716;7.016;2023-01-01T15:53:15;7.43;;;2.85;;
71836;SDS011;59686;51.716;7.016;2023-01-01T15:56:09;5.88;;;2.60;;
71836;SDS011;59686;51.716;7.016;2023-01-01T15:58:53;8.30;;;2.70;;
71836;SDS011;59686;51.716;7.016;2023-01-01T16:01:37;7.80;;;2.95;;
71836;SDS011;59686;51.716;7.016;2023-01-01T16:06:44;6.30;;;2.72;;
71836;SDS011;59686;51.716;7.016;2023-01-01T16:09:14;6.28;;;2.80;;
71836;SDS011;59686;51.716;7.016;2023-01-01T16:11:41;6.07;;;2.88;;
71836;SDS011;59686;51.716;7.016;2023-01-01T16:14:07;8.25;;;3.40;;
71836;SDS011;59686;51.716;7.016;2023-01-01T16:16:34;11.55;;;3.85;;
71836;SDS011;59686;51.716;7.016;2023-01-01T16:19:04;9.88;;;4.35;;
71836;SDS011;59686;51.716;7.016;2023-01-01T16:21:30;12.40;;;4.70;;
71836;SDS011;59686;51.716;7.016;2023-01-01T16:23:57;8.38;;;4.03;;
71836;SDS011;59686;51.716;7.016;2023-01-01T16:26:23;10.15;;;4.45;;
71836;SDS011;59686;51.716;7.016;2023-01-01T16:28:49;9.88;;;4.32;;
71836;SDS011;59686;51.716;7.016;2023-01-01T16:31:24;10.20;;;4.22;;
71836;SDS011;59686;51.716;7.016;2023-01-01T16:33:56;11.45;;;4.13;;
71836;SDS011;59686;51.716;7.016;2023-01-01T16:36:23;9.43;;;4.18;;
71836;SDS011;59686;51.716;7.016;2023-01-01T16:38:51;9.05;;;3.75;;
71836;SDS011;59686;51.716;7.016;2023-01-01T16:41:17;7.30;;;3.55;;
71836;SDS011;59686;51.716;7.016;2023-01-01T16:43:44;7.82;;;3.65;;
71836;SDS011;59686;51.716;7.016;2023-01-01T16:46:10;7.35;;;3.85;;
71836;SDS011;59686;51.716;7.016;2023-01-01T16:48:37;6.10;;;3.63;;
71836;SDS011;59686;51.716;7.016;2023-01-01T16:51:03;8.85;;;3.67;;
71836;SDS011;59686;51.716;7.016;2023-01-01T16:53:30;9.00;;;3.97;;
71836;SDS011;59686;51.716;7.016;2023-01-01T16:55:57;8.75;;;3.60;;
71836;SDS011;59686;51.716;7.016;2023-01-01T16:58:22;7.28;;;4.07;;
71836;SDS011;59686;51.716;7.016;2023-01-01T17:00:48;10.00;;;3.75;;
71836;SDS011;59686;51.716;7.016;2023-01-01T17:03:19;8.93;;;4.22;;
71836;SDS011;59686;51.716;7.016;2023-01-01T17:05:54;10.82;;;3.70;;
71836;SDS011;59686;51.716;7.016;2023-01-01T17:08:20;7.82;;;3.83;;
71836;SDS011;59686;51.716;7.016;2023-01-01T17:10:45;8.65;;;4.18;;
71836;SDS011;59686;51.716;7.016;2023-01-01T17:16:10;9.68;;;4.10;;
71836;SDS011;59686;51.716;7.016;2023-01-01T17:18:37;7.30;;;3.47;;
71836;SDS011;59686;51.716;7.016;2023-01-01T17:21:03;6.07;;;3.60;;
71836;SDS011;59686;51.716;7.016;2023-01-01T17:23:34;6.40;;;3.65;;
71836;SDS011;59686;51.716;7.016;2023-01-01T17:26:11;8.38;;;3.70;;
71836;SDS011;59686;51.716;7.016;2023-01-01T17:28:39;9.13;;;3.75;;
71836;SDS011;59686;51.716;7.016;2023-01-01T17:31:07;6.25;;;3.55;;
71836;SDS011;59686;51.716;7.016;2023-01-01T17:33:35;8.15;;;3.72;;
71836;SDS011;59686;51.716;7.016;2023-01-01T17:36:01;6.55;;;3.63;;
71836;SDS011;59686;51.716;7.016;2023-01-01T17:38:27;7.00;;;3.38;;
71836;SDS011;59686;51.716;7.016;2023-01-01T17:41:05;6.93;;;3.80;;
71836;SDS011;59686;51.716;7.016;2023-01-01T17:43:36;7.90;;;3.85;;
71836;SDS011;59686;51.716;7.016;2023-01-01T17:46:12;6.30;;;3.88;;
71836;SDS011;59686;51.716;7.016;2023-01-01T17:48:44;6.35;;;3.38;;
71836;SDS011;59686;51.716;7.016;2023-01-01T17:51:10;5.78;;;3.47;;
71836;SDS011;59686;51.716;7.016;2023-01-01T17:53:36;9.30;;;3.75;;
71836;SDS011;59686;51.716;7.016;2023-01-01T17:56:07;5.55;;;3.20;;
71836;SDS011;59686;51.716;7.016;2023-01-01T17:58:36;7.90;;;3.53;;
71836;SDS011;59686;51.716;7.016;2023-01-01T18:03:34;7.13;;;3.50;;
71836;SDS011;59686;51.716;7.016;2023-01-01T18:06:00;6.03;;;3.47;;
71836;SDS011;59686;51.716;7.016;2023-01-01T18:08:26;8.73;;;3.67;;
71836;SDS011;59686;51.716;7.016;2023-01-01T18:11:10;8.95;;;3.70;;
71836;SDS011;59686;51.716;7.016;2023-01-01T18:13:36;12.30;;;3.92;;
71836;SDS011;59686;51.716;7.016;2023-01-01T18:16:03;6.63;;;3.20;;
71836;SDS011;59686;51.716;7.016;2023-01-01T18:18:30;7.78;;;3.95;;